FL29 weather

Hales 700 Airport
Fort Pierce, Florida, United States

Public forecast

Using degrees Fahrenheit for public forecast. Weather courtesy of forecast.io.

Closest aviation weather report (METAR) to Hales 700 Airport

Closest report is St Lucie County International Airport, 13.5 nm (24.9 km) NE. Retrieved 2019/10/23 13:53 UTC (20 minutes ago):

KFPR 231353Z 36009G14KT 340V040 10SM BKN019 28/22 A3002 RMK AO2 SLP166 T02830222

Closest aviation forecast (TAF) to Hales 700 Airport

Closest forecast is St Lucie County International Airport, 13.5 nm (24.9 km) NE. Retrieved 2019/10/23 12:22 UTC (2 hours ago):

TAF KFPR 231120Z 2312/2412 32004KT P6SM FEW020 FM231300 02009KT P6SM SCT030 TEMPO 2313/2316 BKN030 FM231600 03010KT P6SM VCSH BKN035 FM240100 07006KT P6SM VCSH BKN035